メインページ
METAR-TAF:

METAR-TAF

空港 :

バンクーバー, ブリティッシュコロンビア州, カナダ

バンクーバー国際空港

緯度: 49-11N, 経度: 123-10W, 海抜: 3m

現時点の気象観測

当レポートは1時間8分前の10:00(UTC)に作成
東/南東の風 5kt
気温 10°C
湿度 93%
気圧 1004 hPa
視程: 32.2km
高度4500ftの雲は散在している
高度6000ftの千切れ雲あり

METAR: CYVR 201000Z 11005KT 20SM SCT045 BKN060 10/09 A2965 RMK SC4SC2 VIS NE 6 SLP042

時間: 04:08 (11:08 UTC)

予報

当レポートは2時間29分前の08:39(UTC)に作成
予報は20日の 09時(UTC)から 21日の 12時(UTC)まで有効
の風 6kt
視程: 10km
高度2000ftの雲は散在している
高度4000ftの千切れ雲あり
20日の 09時(UTC)から 20日の 18時(UTC)まで一時的に
視程: 8.0km
高度800ftの雲は散在している
高度2000ftの千切れ雲あり
弱いにわか雨, 靄
20日の 1800時(UTC)から
変向風 3kt
視程: 10km
高度2000ftの雲はほとんどない
高度4000ftの雲は散在している
20日の 21時(UTC)から 20日の 23時(UTC)まで徐々に
西の風 10kt
21日の 0600時(UTC)から
の風 8kt
視程: 10km
高度1500ftの雲は散在している
高度2500ftの千切れ雲あり

TAF: CYVR 200839Z 2009/2112 08006KT P6SM SCT020 BKN040 TEMPO 2009/2018 5SM -SHRA BR SCT008 BKN020 FM201800 VRB03KT P6SM FEW020 SCT040 BECMG 2021/2023 27010KT FM210600 08008KT P6SM SCT015 BKN025 RMK NXT FCST BY 201200Z

4,000以上の空港の気象観測と天気予報(METAR報とTAF報)

利用可能な観測所は地図上に黄色い丸と赤い丸で示す。

丸の上にカーソルを重ねると観測所名を参照できる。

次にクリックすると気象観測と天気予報を参照できる。

マップの切り替え:黒色「×」印の緑ボタンをクリックして拡大、「-」印の緑ボタンをクリックして縮小、緑色の三角印をクリックして隣りの地図に切り替え


METAR-TAF: